Time;durP1;ratioP1;P1;durP2;ratioP2;P2;SDS_P1;SDS_P2;PMS_P1;PMS_P2;Temp;Humidity;BMP_temperature;BMP_pressure;BME280_temperature;BME280_humidity;BME280_pressure;Samples;Min_cycle;Max_cycle;Signal;HPM_P1;HPM_P2
2020/12/13 00:00:32;;;;;;;400.20;162.70;;;;;;;-2.54;75.32;96330.70;1821486;77;25693;-85
2020/12/13 00:03:01;;;;;;;416.20;166.20;;;;;;;-2.55;75.35;96331.71;1820348;77;26379;-86
2020/12/13 00:05:30;;;;;;;399.83;167.77;;;;;;;-2.52;75.32;96335.00;1843850;77;26279;-85
2020/12/13 00:07:57;;;;;;;387.90;156.52;;;;;;;-2.54;75.33;96333.34;1843582;77;27462;-85
2020/12/13 00:10:25;;;;;;;397.02;163.35;;;;;;;-2.61;75.34;96342.89;1843582;77;26264;-86
2020/12/13 00:12:52;;;;;;;411.60;164.70;;;;;;;-2.62;75.45;96344.36;1843705;77;25689;-85
2020/12/13 00:15:19;;;;;;;401.20;162.20;;;;;;;-2.60;75.57;96345.88;1837131;77;25796;-85
2020/12/13 00:17:47;;;;;;;384.80;153.12;;;;;;;-2.58;75.64;96343.91;1799493;77;25688;-85
2020/12/13 00:20:15;;;;;;;389.60;156.02;;;;;;;-2.57;75.63;96346.89;1830415;77;27502;-85
2020/12/13 00:22:43;;;;;;;429.45;174.23;;;;;;;-2.61;75.61;96350.81;1810815;79;25767;-86
2020/12/13 00:25:12;;;;;;;444.58;180.10;;;;;;;-2.63;75.67;96358.55;1811215;78;25624;-86
2020/12/13 00:27:40;;;;;;;423.88;176.90;;;;;;;-2.62;75.65;96357.08;1811399;77;26441;-85
2020/12/13 00:30:08;;;;;;;441.08;172.57;;;;;;;-2.62;75.56;96366.33;1833840;77;25487;-85
2020/12/13 00:32:39;;;;;;;411.12;169.20;;;;;;;-2.62;75.52;96374.25;1844885;77;27532;-85
2020/12/13 00:35:07;;;;;;;408.68;172.45;;;;;;;-2.72;75.30;96376.17;1845084;77;25797;-86
2020/12/13 00:37:35;;;;;;;394.98;160.78;;;;;;;-2.78;75.30;96371.52;1842658;77;25812;-85
2020/12/13 00:40:03;;;;;;;401.33;164.65;;;;;;;-2.80;75.31;96376.12;1833411;77;26531;-85
2020/12/13 00:42:30;;;;;;;383.85;158.93;;;;;;;-2.83;75.31;96383.02;1832762;77;25748;-86
2020/12/13 00:44:57;;;;;;;380.02;162.10;;;;;;;-2.83;75.37;96388.30;1803087;77;27495;-85
2020/12/13 00:47:25;;;;;;;395.80;159.82;;;;;;;-2.87;75.28;96382.98;1788322;80;25320;-85
2020/12/13 00:49:52;;;;;;;386.82;157.18;;;;;;;-2.89;75.32;96390.22;1842880;77;25761;-85
2020/12/13 00:52:19;;;;;;;393.88;157.60;;;;;;;-2.91;75.29;96396.17;1810963;77;25510;-86
2020/12/13 00:54:47;;;;;;;399.25;158.60;;;;;;;-2.93;75.34;96395.48;1809048;77;25770;-85
2020/12/13 00:57:14;;;;;;;403.98;164.67;;;;;;;-2.92;75.37;96401.11;1811336;78;28552;-86
2020/12/13 00:59:41;;;;;;;406.93;163.72;;;;;;;-2.92;75.42;96397.98;1811518;77;25771;-87
2020/12/13 01:02:08;;;;;;;401.18;159.27;;;;;;;-2.90;75.49;96395.20;1811680;79;25678;-86
2020/12/13 01:04:36;;;;;;;392.10;160.37;;;;;;;-2.89;75.52;96396.83;1810707;78;25791;-86
2020/12/13 01:07:06;;;;;;;393.17;155.45;;;;;;;-2.88;75.52;96397.66;1797310;77;25880;-85
2020/12/13 01:09:34;;;;;;;376.10;152.32;;;;;;;-2.85;75.53;96399.51;1811165;78;28532;-85
2020/12/13 01:12:01;;;;;;;389.25;150.27;;;;;;;-2.81;75.47;96405.33;1805419;77;26178;-85
2020/12/13 01:14:28;;;;;;;367.48;154.50;;;;;;;-2.80;75.48;96401.21;1788621;77;25674;-85
2020/12/13 01:16:56;;;;;;;375.18;149.07;;;;;;;-2.82;75.46;96400.53;1792504;77;25863;-86
2020/12/13 01:19:24;;;;;;;358.65;148.02;;;;;;;-2.82;75.51;96405.81;1810623;79;25776;-85
2020/12/13 01:21:51;;;;;;;352.10;144.07;;;;;;;-2.78;75.56;96407.17;1814406;77;27560;-86
2020/12/13 01:24:18;;;;;;;355.15;147.47;;;;;;;-2.74;75.62;96404.55;1843735;77;25719;-85
2020/12/13 01:26:46;;;;;;;375.40;150.42;;;;;;;-2.71;75.64;96406.89;1804256;77;25368;-85
2020/12/13 01:29:13;;;;;;;364.45;152.38;;;;;;;-2.70;75.61;96407.23;1788071;79;26461;-85
2020/12/13 01:31:40;;;;;;;353.25;153.72;;;;;;;-2.70;75.58;96405.08;1824383;77;25800;-86
2020/12/13 01:34:08;;;;;;;353.60;146.70;;;;;;;-2.69;75.62;96403.61;1811904;79;27490;-89
2020/12/13 01:36:41;;;;;;;339.77;144.13;;;;;;;-2.62;75.60;96409.09;1810846;77;25775;-86
2020/12/13 01:39:08;;;;;;;340.32;138.43;;;;;;;-2.61;75.59;96410.75;1810454;79;25723;-84
2020/12/13 01:41:36;;;;;;;349.52;139.85;;;;;;;-2.61;75.63;96407.62;1810497;77;25784;-86
2020/12/13 01:44:05;;;;;;;346.37;144.65;;;;;;;-2.60;75.67;96404.48;1810338;77;25813;-85
2020/12/13 01:46:35;;;;;;;330.10;138.70;;;;;;;-2.57;75.71;96399.73;1810635;79;27486;-87
2020/12/13 01:49:07;;;;;;;365.55;144.47;;;;;;;-2.55;75.68;96394.30;1816946;77;26439;-85
2020/12/13 01:51:52;;;;;;;368.73;146.15;;;;;;;-2.56;75.65;96396.59;1817270;77;25746;-88
2020/12/13 01:54:20;;;;;;;337.90;136.40;;;;;;;-2.57;75.66;96400.22;1793603;79;25843;-85
2020/12/13 01:56:53;;;;;;;328.25;135.10;;;;;;;-2.58;75.63;96403.36;1785161;78;25789;-85
2020/12/13 01:59:21;;;;;;;;;;;;;;;-2.54;75.72;96403.36;1814141;78;27570;-87
2020/12/13 02:01:59;;;;;;;311.40;128.65;;;;;;;-2.51;75.78;96402.72;1815175;78;25834;-85
2020/12/13 02:04:28;;;;;;;320.17;132.03;;;;;;;-2.52;75.77;96402.38;1786156;79;25447;-85
2020/12/13 02:06:58;;;;;;;310.02;132.57;;;;;;;-2.50;75.81;96395.96;1784878;79;26223;-85
2020/12/13 02:09:26;;;;;;;342.23;135.72;;;;;;;-2.47;75.82;96398.80;1783934;78;25695;-85
2020/12/13 02:11:54;;;;;;;319.65;128.42;;;;;;;-2.43;75.85;96402.80;1815567;78;28385;-85
2020/12/13 02:14:22;;;;;;;321.40;129.70;;;;;;;-2.43;75.83;96405.44;1815669;78;25379;-85
2020/12/13 02:16:50;;;;;;;301.27;125.27;;;;;;;-2.41;75.87;96406.09;1815492;79;25762;-85
2020/12/13 02:19:18;;;;;;;313.00;126.12;;;;;;;-2.38;75.89;96405.78;1815436;78;26446;-85
2020/12/13 02:21:49;;;;;;;303.62;127.27;;;;;;;-2.37;75.89;96406.13;1812998;78;25802;-85
2020/12/13 02:24:17;;;;;;;313.65;128.97;;;;;;;-2.37;75.90;96408.27;1771723;79;27753;-84
2020/12/13 02:26:47;;;;;;;303.48;123.15;;;;;;;-2.34;75.95;96411.11;1785410;79;25659;-85
2020/12/13 02:29:15;;;;;;;288.90;120.72;;;;;;;-2.35;75.95;96408.95;1785797;79;26220;-85
2020/12/13 02:31:44;;;;;;;279.00;118.15;;;;;;;-2.33;76.00;96414.09;1785614;80;25782;-85
2020/12/13 02:34:11;;;;;;;276.80;114.10;;;;;;;-2.29;76.03;96416.73;1813894;79;25800;-85
2020/12/13 02:36:38;;;;;;;282.25;116.67;;;;;;;-2.28;76.05;96417.08;1798141;78;27553;-85
2020/12/13 02:39:08;;;;;;;276.05;115.88;;;;;;;-2.25;76.06;96408.84;1785094;79;25763;-85
2020/12/13 02:41:35;;;;;;;285.63;115.77;;;;;;;-2.22;76.05;96405.89;1786812;80;25779;-86
2020/12/13 02:44:03;;;;;;;281.35;117.37;;;;;;;-2.23;76.09;96402.41;1787055;79;25515;-86
2020/12/13 02:46:30;;;;;;;274.05;109.52;;;;;;;-2.20;76.09;96403.92;1786607;79;25780;-85
2020/12/13 02:48:58;;;;;;;279.50;114.57;;;;;;;-2.18;76.10;96408.56;1786256;79;28811;-85
2020/12/13 02:51:25;;;;;;;273.10;114.47;;;;;;;-2.22;76.09;96413.82;1795322;79;25722;-85
2020/12/13 02:53:53;;;;;;;278.77;118.80;;;;;;;-2.20;76.16;96404.75;1837871;77;25854;-85
2020/12/13 02:56:20;;;;;;;272.45;118.05;;;;;;;-2.16;76.17;96407.89;1837687;77;25708;-85
2020/12/13 02:58:47;;;;;;;279.27;117.97;;;;;;;-2.15;76.17;96410.87;1820610;76;25778;-85
2020/12/13 03:01:15;;;;;;;290.27;117.72;;;;;;;-2.12;76.24;96416.34;1822016;77;27524;-85
2020/12/13 03:03:42;;;;;;;295.48;119.28;;;;;;;-2.09;76.24;96423.48;1846940;77;25744;-85
2020/12/13 03:06:09;;;;;;;284.67;119.08;;;;;;;-2.08;76.20;96425.14;1847127;76;25770;-85
2020/12/13 03:08:37;;;;;;;285.98;121.77;;;;;;;-2.06;76.23;96421.02;1835501;77;26452;-85
2020/12/13 03:11:04;;;;;;;292.27;120.37;;;;;;;-2.01;76.22;96417.40;1812189;77;25902;-86
2020/12/13 03:13:31;;;;;;;291.65;121.80;;;;;;;-1.99;76.23;96429.48;1835400;77;28429;-85
2020/12/13 03:15:59;;;;;;;307.12;126.55;;;;;;;-1.98;76.25;96427.17;1836015;76;25320;-85
2020/12/13 03:18:26;;;;;;;283.70;118.62;;;;;;;-1.96;76.29;96426.53;1836143;77;25772;-85
2020/12/13 03:20:54;;;;;;;300.30;122.78;;;;;;;-1.96;76.30;96433.14;1841457;77;25697;-85
2020/12/13 03:23:21;;;;;;;310.40;124.75;;;;;;;-1.95;76.28;96429.52;1843811;77;25753;-85
2020/12/13 03:25:48;;;;;;;290.82;121.30;;;;;;;-1.92;76.32;96438.43;1825374;77;27483;-85
2020/12/13 03:28:16;;;;;;;306.40;122.40;;;;;;;-1.91;76.34;96438.77;1839560;76;26110;-85
2020/12/13 03:30:43;;;;;;;287.02;119.77;;;;;;;-1.87;76.36;96442.77;1814150;79;25729;-85
2020/12/13 03:33:10;;;;;;;286.73;116.25;;;;;;;-1.88;76.34;96451.69;1814091;78;26506;-85
2020/12/13 03:35:38;;;;;;;279.82;119.40;;;;;;;-1.94;76.37;96447.53;1837007;77;25835;-85
2020/12/13 03:38:05;;;;;;;278.52;117.42;;;;;;;-1.89;76.44;96454.48;1812253;78;28327;-85
2020/12/13 03:40:33;;;;;;;296.12;121.50;;;;;;;-1.85;76.47;96459.31;1815643;77;26069;-85
2020/12/13 03:43:00;;;;;;;291.17;117.45;;;;;;;-1.87;76.46;96457.32;1841311;77;25705;-87
2020/12/13 03:45:27;;;;;;;275.30;115.72;;;;;;;-1.88;76.47;96453.02;1822540;77;25852;-85
2020/12/13 03:47:55;;;;;;;296.60;118.25;;;;;;;-1.84;76.54;96457.01;1847187;77;25712;-85
2020/12/13 03:50:22;;;;;;;287.05;114.55;;;;;;;-1.81;76.56;96459.31;1847138;76;27396;-86
2020/12/13 03:52:49;;;;;;;269.98;114.67;;;;;;;-1.78;76.55;96461.31;1820633;77;25764;-86
2020/12/13 03:55:17;;;;;;;293.05;116.33;;;;;;;-1.78;76.57;96459.99;1843083;76;25335;-85
2020/12/13 03:57:44;;;;;;;288.23;111.55;;;;;;;-1.75;76.64;96455.72;1844664;77;25775;-85
2020/12/13 04:00:12;;;;;;;283.38;114.52;;;;;;;-1.71;76.62;96461.87;1836474;77;25714;-85
2020/12/13 04:02:39;;;;;;;272.02;111.10;;;;;;;-1.71;76.67;96462.36;1836438;77;27472;-85
2020/12/13 04:05:06;;;;;;;274.42;114.57;;;;;;;-1.74;76.67;96464.82;1836068;76;25853;-86
2020/12/13 04:07:33;;;;;;;279.57;110.28;;;;;;;-1.75;76.69;96462.33;1844137;76;25298;-85
2020/12/13 04:10:01;;;;;;;298.68;115.52;;;;;;;-1.72;76.74;96465.99;1847303;77;25634;-85
2020/12/13 04:12:28;;;;;;;281.98;114.77;;;;;;;-1.69;76.78;96469.66;1847364;77;25795;-86
2020/12/13 04:14:56;;;;;;;271.43;110.37;;;;;;;-1.68;76.76;96473.44;1838350;77;27434;-86
2020/12/13 04:17:23;;;;;;;284.85;112.08;;;;;;;-1.67;76.78;96468.48;1825684;77;25662;-86
2020/12/13 04:19:51;;;;;;;272.05;111.70;;;;;;;-1.65;76.87;96459.89;1831887;76;25734;-86
2020/12/13 04:22:18;;;;;;;288.20;110.63;;;;;;;-1.61;76.85;96463.06;1823996;77;26536;-86
2020/12/13 04:24:45;;;;;;;281.85;112.90;;;;;;;-1.57;76.84;96469.70;1820637;77;25900;-87
2020/12/13 04:27:13;;;;;;;270.75;111.77;;;;;;;-1.56;76.86;96472.66;1842716;77;27635;-86
2020/12/13 04:29:40;;;;;;;283.68;115.42;;;;;;;-1.53;76.84;96477.16;1836363;76;25738;-86
2020/12/13 04:32:09;;;;;;;282.70;115.00;;;;;;;-1.54;76.77;96481.27;1828600;77;25782;-86
2020/12/13 04:34:37;;;;;;;291.17;116.10;;;;;;;-1.52;76.84;96479.30;1827190;78;26244;-86
2020/12/13 04:37:05;;;;;;;293.02;118.08;;;;;;;-1.50;76.82;96484.78;1826108;77;25828;-87
2020/12/13 04:39:42;;;;;;;283.80;114.37;;;;;;;-1.49;76.85;96483.80;1832562;77;27469;-85
2020/12/13 04:42:10;;;;;;;281.08;113.68;;;;;;;-1.47;76.86;96486.28;1847332;77;25792;-89
2020/12/13 04:44:38;;;;;;;286.43;116.08;;;;;;;-1.47;76.89;96490.26;1847378;77;26299;-87
2020/12/13 04:47:07;;;;;;;277.45;116.47;;;;;;;-1.43;76.91;96489.42;1815997;77;25714;-86
2020/12/13 04:49:36;;;;;;;286.62;116.47;;;;;;;-1.41;76.92;96488.77;1824384;77;25711;-85
2020/12/13 04:52:04;;;;;;;281.85;114.82;;;;;;;-1.39;76.99;96486.80;1820691;77;27484;-86
2020/12/13 04:54:32;;;;;;;296.02;113.83;;;;;;;-1.37;77.01;96486.16;1828816;77;25483;-90
2020/12/13 04:57:00;;;;;;;277.05;114.67;;;;;;;-1.33;77.06;96484.36;1845910;76;25637;-94
2020/12/13 04:59:27;;;;;;;280.62;112.12;;;;;;;-1.32;76.98;96491.28;1854428;77;26149;-87
2020/12/13 05:01:58;;;;;;;280.25;113.72;;;;;;;-1.32;76.95;96482.02;1834374;77;25845;-86
2020/12/13 05:04:25;;;;;;;294.20;114.47;;;;;;;-1.30;76.95;96491.12;1846359;77;27458;-89
2020/12/13 05:06:53;;;;;;;285.90;114.45;;;;;;;-1.29;76.98;96489.65;1855092;77;25736;-85
2020/12/13 05:09:21;;;;;;;293.42;112.60;;;;;;;-1.26;76.99;96492.48;1852327;77;25696;-85
2020/12/13 05:11:49;;;;;;;276.35;112.62;;;;;;;-1.25;76.95;96493.65;1791314;77;26437;-88
2020/12/13 05:14:17;;;;;;;282.48;112.10;;;;;;;-1.24;76.95;96492.66;1812897;77;25968;-85
2020/12/13 05:16:44;;;;;;;279.65;110.68;;;;;;;-1.24;76.94;96496.63;1816490;77;27554;-86
2020/12/13 05:19:13;;;;;;;285.82;111.68;;;;;;;-1.24;76.94;96499.28;1839771;77;25749;-87
2020/12/13 05:21:44;;;;;;;298.38;116.10;;;;;;;-1.22;77.01;96503.09;1854165;77;25247;-87
2020/12/13 05:24:13;;;;;;;276.10;112.75;;;;;;;-1.22;77.06;96512.36;1851696;77;25652;-89
2020/12/13 05:26:41;;;;;;;280.05;109.85;;;;;;;-1.27;77.04;96512.00;1854558;77;25895;-91
2020/12/13 05:29:08;;;;;;;296.93;117.28;;;;;;;-1.24;77.16;96515.17;1855050;77;27564;-85
2020/12/13 05:31:41;;;;;;;281.98;114.10;;;;;;;-1.20;77.17;96514.33;1854941;77;25860;-88
2020/12/13 05:34:17;;;;;;;276.25;108.87;;;;;;;-1.16;77.19;96517.84;1854780;76;25734;-91
2020/12/13 05:36:46;;;;;;;282.05;111.92;;;;;;;-1.15;77.16;96519.50;1813196;77;25695;-86
2020/12/13 05:39:14;;;;;;;272.73;106.80;;;;;;;-1.12;77.14;96517.03;1837429;77;25760;-88
2020/12/13 05:41:42;;;;;;;250.18;103.72;;;;;;;-1.09;77.12;96514.06;1846086;77;28757;-87
2020/12/13 05:44:31;;;;;;;277.43;106.87;;;;;;;-1.07;77.15;96517.36;1853623;77;25871;-87
2020/12/13 05:46:58;;;;;;;270.95;105.85;;;;;;;-1.10;77.11;96515.88;1824485;77;25841;-95
2020/12/13 05:49:43;;;;;;;259.15;102.87;;;;;;;-1.07;77.13;96515.20;1828504;77;25782;-88
2020/12/13 05:52:04;;;;;;;230.30;96.50;;;;;;;-1.05;77.17;96519.85;1816179;77;25952;-88
2020/12/13 05:54:32;;;;;;;224.50;92.62;;;;;;;-1.03;77.19;96517.87;1811420;77;27422;-91
2020/12/13 05:57:02;;;;;;;233.78;92.30;;;;;;;-1.03;77.24;96522.67;1819787;77;26237;-87
2020/12/13 05:59:32;;;;;;;234.22;96.67;;;;;;;-1.01;77.24;96523.84;1829056;77;25841;-86
2020/12/13 06:02:01;;;;;;;214.97;86.92;;;;;;;-0.96;77.22;96522.36;1849118;76;26760;-86
2020/12/13 06:04:34;;;;;;;195.43;78.35;;;;;;;-0.94;77.22;96528.33;1843720;77;25330;-87
2020/12/13 06:07:03;;;;;;;188.22;73.92;;;;;;;-0.93;77.17;96529.16;1845993;77;27485;-90
2020/12/13 06:09:38;;;;;;;162.57;66.53;;;;;;;-0.91;77.14;96529.83;1849332;77;25582;-88
2020/12/13 06:12:11;;;;;;;165.90;67.53;;;;;;;-0.92;77.13;96533.47;1849546;77;25716;-90
2020/12/13 06:14:43;;;;;;;133.07;55.58;;;;;;;-0.92;77.14;96538.27;1844190;77;26370;-88
2020/12/13 06:17:11;;;;;;;138.68;55.65;;;;;;;-0.91;77.12;96541.26;1843211;77;25279;-87
2020/12/13 06:19:41;;;;;;;123.65;51.48;;;;;;;-0.90;77.17;96539.44;1843841;77;27488;-91
2020/12/13 06:22:12;;;;;;;101.50;45.70;;;;;;;-0.87;77.21;96541.77;1842258;76;26075;-89
2020/12/13 06:24:39;;;;;;;85.92;39.15;;;;;;;-0.86;77.18;96542.94;1838518;77;25508;-93
2020/12/13 06:27:07;;;;;;;80.97;34.35;;;;;;;-0.85;77.15;96543.28;1822941;77;25519;-91
2020/12/13 06:29:36;;;;;;;76.47;34.38;;;;;;;-0.84;77.09;96538.78;1844978;76;26393;-95
2020/12/13 06:32:03;;;;;;;82.22;36.98;;;;;;;-0.82;77.05;96547.40;1839559;77;27591;-95
2020/12/13 06:34:31;;;;;;;77.32;35.35;;;;;;;-0.82;77.04;96544.75;1810095;77;26119;-90
2020/12/13 06:36:58;;;;;;;80.32;36.08;;;;;;;-0.80;77.05;96545.42;1822040;77;26241;-91
2020/12/13 06:39:26;;;;;;;78.52;35.33;;;;;;;-0.81;77.00;96545.92;1843233;77;25562;-87
2020/12/13 06:41:54;;;;;;;79.70;34.45;;;;;;;-0.79;77.01;96553.70;1804419;77;25778;-85
2020/12/13 06:44:23;;;;;;;74.58;33.08;;;;;;;-0.82;77.02;96554.86;1801283;77;27472;-92
2020/12/13 06:46:50;;;;;;;74.77;33.58;;;;;;;-0.83;76.99;96564.28;1801689;77;25738;-86
2020/12/13 06:49:21;;;;;;;75.12;34.83;;;;;;;-0.83;77.01;96564.28;1835060;77;37252;-86
2020/12/13 06:51:49;;;;;;;65.22;30.60;;;;;;;-0.80;77.02;96560.00;1809750;77;26560;-86
2020/12/13 06:54:20;;;;;;;67.25;30.30;;;;;;;-0.85;76.92;96563.15;1803539;77;25467;-86
2020/12/13 06:56:48;;;;;;;59.93;29.07;;;;;;;-0.87;76.90;96569.10;1780651;79;28543;-87
2020/12/13 06:59:21;;;;;;;70.75;32.63;;;;;;;-0.87;76.96;96566.45;1764311;79;25984;-90
2020/12/13 07:01:49;;;;;;;68.52;31.65;;;;;;;-0.91;76.91;96573.55;1777746;79;25890;-86
2020/12/13 07:04:35;;;;;;;71.85;32.60;;;;;;;-0.93;76.96;96578.17;1796554;78;25628;-93
2020/12/13 07:07:07;;;;;;;68.33;33.50;;;;;;;-0.91;77.02;96582.81;1788176;79;25411;-90
2020/12/13 07:09:33;;;;;;;61.73;29.42;;;;;;;-0.89;77.06;96580.84;1790046;79;27507;-90
2020/12/13 07:12:02;;;;;;;65.80;31.80;;;;;;;-0.89;77.05;96584.81;1787221;78;25791;-86
2020/12/13 07:14:32;;;;;;;74.15;33.85;;;;;;;-0.85;77.08;96588.81;1777018;79;25336;-86
2020/12/13 07:17:04;;;;;;;81.22;35.65;;;;;;;-0.84;77.05;96590.45;1796178;79;25443;-89
2020/12/13 07:19:35;;;;;;;59.27;29.27;;;;;;;-0.83;77.01;96596.08;1776715;79;25363;-89
2020/12/13 07:22:10;;;;;;;69.42;30.52;;;;;;;-0.82;76.97;96593.77;1774846;79;27373;-91
2020/12/13 07:24:40;;;;;;;64.20;32.70;;;;;;;-0.84;76.93;96592.60;1769865;79;26173;-87
2020/12/13 07:27:08;;;;;;;80.05;33.42;;;;;;;-0.83;76.92;96592.11;1769174;79;25777;-91
2020/12/13 07:29:36;;;;;;;68.07;32.95;;;;;;;-0.82;76.94;96597.25;1774304;79;26525;-87
2020/12/13 07:32:06;;;;;;;63.98;31.23;;;;;;;-0.81;76.96;96590.97;1796284;79;25751;-86
2020/12/13 07:34:34;;;;;;;66.60;31.40;;;;;;;-0.78;76.95;96592.47;1796965;79;27552;-90
2020/12/13 07:37:02;;;;;;;68.12;31.23;;;;;;;-0.70;76.97;96596.95;1797305;79;26482;-86
2020/12/13 07:39:30;;;;;;;70.28;31.45;;;;;;;-0.63;76.91;96604.13;1797018;79;25699;-87
2020/12/13 07:41:58;;;;;;;68.10;31.10;;;;;;;-0.67;76.74;96601.45;1796387;79;25834;-87
2020/12/13 07:44:26;;;;;;;67.05;32.03;;;;;;;-0.68;76.71;96603.77;1780429;79;25927;-86
2020/12/13 07:46:53;;;;;;;73.47;32.30;;;;;;;-0.67;76.71;96612.05;1778091;79;28441;-86
2020/12/13 07:49:22;;;;;;;64.27;30.00;;;;;;;-0.78;76.60;96609.20;1796186;79;25289;-86
2020/12/13 07:51:53;;;;;;;66.77;31.68;;;;;;;-0.80;76.72;96620.45;1784732;79;25380;-88
2020/12/13 07:54:27;;;;;;;74.87;35.90;;;;;;;-0.79;76.75;96621.28;1813416;77;27525;-86
2020/12/13 07:57:11;;;;;;;68.92;33.08;;;;;;;-0.72;76.75;96628.42;1830664;76;25708;-86
2020/12/13 07:59:38;;;;;;;65.20;32.35;;;;;;;-0.79;76.68;96624.77;1817153;77;28449;-88
2020/12/13 08:02:08;;;;;;;71.35;32.48;;;;;;;-0.77;76.75;96629.91;1836177;77;25687;-91
2020/12/13 08:04:38;;;;;;;73.83;38.48;;;;;;;-0.75;76.74;96631.91;1836308;76;25721;-91
2020/12/13 08:07:11;;;;;;;77.53;38.83;;;;;;;-0.76;76.72;96627.59;1842561;76;25867;-87
2020/12/13 08:09:42;;;;;;;77.50;38.05;;;;;;;-0.76;76.74;96630.25;1841431;77;25892;-93
2020/12/13 08:12:13;;;;;;;72.82;35.38;;;;;;;-0.74;76.77;96630.92;1789634;79;27543;-90
2020/12/13 08:14:41;;;;;;;65.35;32.10;;;;;;;-0.69;76.78;96631.25;1766732;79;34909;-92
2020/12/13 08:17:09;;;;;;;74.30;33.88;;;;;;;-0.77;76.64;96632.55;1754233;79;25711;-87
2020/12/13 08:19:54;;;;;;;73.15;33.48;;;;;;;-0.82;76.60;96629.55;1800383;79;25574;-84
2020/12/13 08:22:28;;;;;;;65.62;33.85;;;;;;;-0.88;76.60;96636.82;1778353;79;25820;-89
2020/12/13 08:25:00;;;;;;;76.20;34.25;;;;;;;-0.95;76.70;96638.42;1781235;80;27505;-96
2020/12/13 08:27:31;;;;;;;66.62;31.33;;;;;;;-0.93;76.78;96636.45;1767452;79;25334;-89
2020/12/13 08:29:59;;;;;;;78.65;35.38;;;;;;;-0.99;76.79;96635.28;1743475;79;25773;-87
2020/12/13 08:32:36;;;;;;;76.02;35.45;;;;;;;-1.02;76.82;96644.03;1800009;79;25810;-86
2020/12/13 08:35:18;;;;;;;77.87;36.03;;;;;;;-0.96;76.95;96638.09;1789022;79;25317;-93
2020/12/13 08:37:57;;;;;;;72.85;35.00;;;;;;;-0.90;77.00;96641.44;1786109;78;27566;-92
2020/12/13 08:40:44;;;;;;;81.28;36.68;;;;;;;-0.86;77.00;96649.42;1788289;79;25734;-95
2020/12/13 08:43:18;;;;;;;78.78;38.95;;;;;;;-0.81;77.04;96643.96;1755392;79;25816;-87
2020/12/13 08:45:56;;;;;;;82.02;38.78;;;;;;;-0.76;77.02;96644.82;1800472;79;26496;-92
2020/12/13 08:48:29;;;;;;;86.82;40.03;;;;;;;-0.73;76.92;96648.48;1779129;79;25382;-90
2020/12/13 08:51:10;;;;;;;87.78;42.20;;;;;;;-0.75;76.90;96647.31;1776283;78;27537;-87
2020/12/13 08:53:38;;;;;;;88.22;38.50;;;;;;;-0.73;76.88;96649.81;1748809;80;26054;-93
2020/12/13 08:56:13;;;;;;;89.13;40.78;;;;;;;-0.74;76.79;96653.45;1727957;81;25388;-90
2020/12/13 08:58:57;;;;;;;82.62;37.78;;;;;;;-0.76;76.78;96656.75;1717932;81;25795;-88
2020/12/13 09:01:27;;;;;;;99.95;42.60;;;;;;;-0.74;76.82;96652.95;1745110;81;25809;-91
2020/12/13 09:03:56;;;;;;;106.85;45.73;;;;;;;-0.70;76.84;96654.77;1764866;80;27487;-86
2020/12/13 09:06:38;;;;;;;102.80;46.28;;;;;;;-0.67;76.86;96660.25;1764354;79;26424;-87
2020/12/13 09:09:12;;;;;;;100.25;46.73;;;;;;;-0.66;76.90;96656.12;1764954;79;25727;-87
2020/12/13 09:11:41;;;;;;;99.77;45.10;;;;;;;-0.66;76.83;96656.12;1733657;79;26366;-89
2020/12/13 09:14:09;;;;;;;92.62;39.67;;;;;;;-0.66;76.82;96655.28;1733535;79;25860;-91
2020/12/13 09:16:36;;;;;;;84.85;37.45;;;;;;;-0.62;76.81;96656.14;1761899;79;28654;-91
2020/12/13 09:19:13;;;;;;;91.30;42.03;;;;;;;-0.63;76.68;96653.16;1747706;81;25381;-88
2020/12/13 09:21:51;;;;;;;83.58;39.98;;;;;;;-0.68;76.55;96667.86;1761239;79;25724;-89
2020/12/13 09:24:23;;;;;;;90.90;41.10;;;;;;;-0.63;76.65;96658.95;1764477;81;25799;-88
2020/12/13 09:27:07;;;;;;;96.57;43.40;;;;;;;-0.61;76.59;96656.98;1763957;81;25325;-90
2020/12/13 09:29:39;;;;;;;88.30;39.55;;;;;;;-0.60;76.56;96662.09;1764379;80;28468;-89
2020/12/13 09:32:07;;;;;;;;;;;;;;;-0.50;76.56;96660.16;1745685;81;25719;-88
2020/12/13 09:34:38;;;;;;;82.27;39.30;;;;;;;-0.46;76.48;96662.80;1764919;80;25868;-87
2020/12/13 09:37:12;;;;;;;85.15;39.30;;;;;;;-0.45;76.42;96663.64;1750232;81;26591;-88
2020/12/13 09:39:41;;;;;;;91.60;39.65;;;;;;;-0.41;76.44;96664.48;1733449;81;25728;-89
2020/12/13 09:42:12;;;;;;;90.28;40.70;;;;;;;-0.34;76.39;96670.46;1747537;79;28458;-89
2020/12/13 09:44:44;;;;;;;89.30;41.95;;;;;;;-0.37;76.26;96671.64;1762987;79;25827;-90
2020/12/13 09:47:10;;;;;;;93.62;43.23;;;;;;;-0.40;76.16;96672.78;1762707;79;25893;-89
2020/12/13 09:49:37;;;;;;;91.67;41.68;;;;;;;-0.45;76.19;96663.14;1762610;79;25520;-88
2020/12/13 09:52:05;;;;;;;83.45;39.27;;;;;;;-0.39;76.28;96669.14;1743009;79;25695;-89
2020/12/13 09:54:32;;;;;;;88.47;40.03;;;;;;;-0.39;76.19;96662.52;1747245;79;27497;-90
2020/12/13 09:57:00;;;;;;;94.05;42.33;;;;;;;-0.38;76.25;96669.48;1777094;78;26104;-89
2020/12/13 09:59:27;;;;;;;93.37;42.58;;;;;;;-0.37;76.34;96664.52;1760764;78;25775;-91
2020/12/13 10:01:55;;;;;;;98.97;45.10;;;;;;;-0.37;76.38;96659.70;1786307;80;26370;-92
2020/12/13 10:04:23;;;;;;;93.75;42.78;;;;;;;-0.37;76.34;96662.36;1783478;78;25756;-87
2020/12/13 10:09:38;;;;;;;94.32;42.60;;;;;;;-0.42;76.18;96666.80;1843637;77;25769;-91
2020/12/13 10:12:05;;;;;;;127.87;53.83;;;;;;;-0.45;76.20;96659.16;1846927;77;25375;-90
2020/12/13 10:14:33;;;;;;;89.75;42.25;;;;;;;-0.42;76.37;96668.13;1833536;77;26632;-90
2020/12/13 10:17:02;;;;;;;94.72;42.55;;;;;;;-0.39;76.34;96667.81;1818135;77;25831;-91
2020/12/13 10:19:30;;;;;;;93.20;41.50;;;;;;;-0.39;76.34;96659.86;1823687;77;28483;-90
2020/12/13 10:21:57;;;;;;;85.65;39.50;;;;;;;-0.39;76.28;96657.21;1808061;77;26129;-89
2020/12/13 10:24:25;;;;;;;99.13;43.60;;;;;;;-0.37;76.28;96661.86;1796530;77;25691;-92
2020/12/13 10:26:53;;;;;;;96.28;43.63;;;;;;;-0.37;76.22;96661.86;1833742;77;26417;-90
2020/12/13 10:29:20;;;;;;;94.77;44.42;;;;;;;-0.36;76.26;96662.66;1819198;77;25921;-90
2020/12/13 10:31:48;;;;;;;92.00;44.10;;;;;;;-0.36;76.24;96663.49;1836313;77;27486;-90
2020/12/13 10:34:17;;;;;;;97.27;46.15;;;;;;;-0.31;76.29;96663.52;1796145;77;25734;-91
2020/12/13 10:36:45;;;;;;;101.10;46.05;;;;;;;-0.29;76.30;96663.69;1829721;77;25544;-90
2020/12/13 10:39:19;;;;;;;288.78;81.12;;;;;;;-0.26;76.27;96662.55;1796774;77;26496;-91
2020/12/13 10:41:42;;;;;;;150.40;53.80;;;;;;;-0.23;76.32;96655.56;1808776;77;25738;-92
2020/12/13 10:44:10;;;;;;;124.42;48.83;;;;;;;-0.21;76.36;96666.84;1821335;77;28458;-90
2020/12/13 10:46:39;;;;;;;116.12;45.05;;;;;;;-0.17;76.36;96666.87;1826381;77;25340;-93
2020/12/13 10:49:06;;;;;;;101.15;47.08;;;;;;;-0.21;76.20;96666.84;1794684;77;25647;-92
2020/12/13 10:51:34;;;;;;;95.62;45.05;;;;;;;-0.27;76.20;96657.73;1798906;77;26419;-90
2020/12/13 10:54:02;;;;;;;110.20;45.55;;;;;;;-0.30;76.26;96659.88;1820496;77;25849;-90
2020/12/13 10:56:29;;;;;;;235.32;87.60;;;;;;;-0.33;76.18;96656.21;1800559;77;27494;-90
2020/12/13 10:58:56;;;;;;;158.30;66.00;;;;;;;-0.43;76.12;96662.49;1803209;77;25729;-90
2020/12/13 11:01:24;;;;;;;131.40;55.98;;;;;;;-0.44;76.28;96662.16;1819650;77;25750;-89
2020/12/13 11:03:51;;;;;;;95.60;44.35;;;;;;;-0.37;76.41;96665.01;1848730;77;25712;-90
2020/12/13 11:06:19;;;;;;;89.35;41.40;;;;;;;-0.34;76.40;96662.50;1847662;77;25763;-90
2020/12/13 11:08:46;;;;;;;87.27;41.83;;;;;;;-0.37;76.37;96666.33;1824565;77;27472;-90
2020/12/13 11:11:13;;;;;;;91.57;42.15;;;;;;;-0.31;76.42;96663.52;1841615;77;26324;-90
2020/12/13 11:13:43;;;;;;;90.03;40.28;;;;;;;-0.28;76.37;96660.55;1848728;77;25740;-91
2020/12/13 11:16:10;;;;;;;95.90;43.65;;;;;;;-0.26;76.34;96663.88;1848634;77;25763;-90
2020/12/13 11:18:37;;;;;;;87.25;40.88;;;;;;;-0.28;76.35;96675.13;1833562;77;25255;-91
2020/12/13 11:21:05;;;;;;;95.77;44.20;;;;;;;-0.23;76.29;96675.46;1835827;77;27473;-90